createdAt,value
2022-11-13T00:01:54.807Z,71.63
2022-11-13T00:05:19.524Z,71.05
2022-11-13T00:08:47.636Z,71.12
2022-11-13T00:12:19.366Z,70.80
2022-11-13T00:16:02.011Z,70.59
2022-11-13T00:19:44.222Z,70.71
2022-11-13T00:26:43.992Z,70.57
2022-11-13T00:45:10.524Z,70.83
2022-11-13T00:53:18.252Z,69.99
2022-11-13T00:57:43.223Z,69.78
2022-11-13T01:01:11.258Z,69.57
2022-11-13T01:04:54.956Z,69.27
2022-11-13T01:09:02.803Z,69.23
2022-11-13T01:12:47.425Z,69.02
2022-11-13T01:16:11.153Z,68.71
2022-11-13T01:19:37.003Z,68.59
2022-11-13T01:22:58.774Z,68.39
2022-11-13T01:26:25.216Z,67.92
2022-11-13T01:29:49.736Z,68.29
2022-11-13T01:34:15.144Z,68.42
2022-11-13T01:37:44.123Z,68.41
2022-11-13T01:46:26.491Z,68.44
2022-11-13T01:50:24.914Z,68.00
2022-11-13T01:53:55.125Z,67.46
2022-11-13T02:01:14.561Z,66.94
2022-11-13T02:04:42.195Z,66.82
2022-11-13T02:08:04.846Z,66.59
2022-11-13T02:13:02.316Z,66.00
2022-11-13T02:16:48.584Z,65.43
2022-11-13T02:20:14.495Z,65.47
2022-11-13T02:24:16.077Z,65.19
2022-11-13T02:27:43.743Z,64.87
2022-11-13T02:31:11.182Z,64.44
2022-11-13T02:49:02.658Z,63.61
2022-11-13T02:52:29.710Z,62.94
2022-11-13T03:06:08.226Z,62.90
2022-11-13T03:10:18.815Z,62.65
2022-11-13T03:14:25.061Z,62.48
2022-11-13T03:17:49.600Z,61.75
2022-11-13T03:21:22.371Z,61.30
2022-11-13T03:24:47.145Z,60.33
2022-11-13T03:28:23.540Z,59.98
2022-11-13T03:32:01.399Z,59.78
2022-11-13T03:35:32.644Z,58.55
2022-11-13T03:38:56.824Z,58.86
2022-11-13T03:42:56.528Z,58.59
2022-11-13T03:46:24.489Z,57.91
2022-11-13T03:50:11.620Z,57.53
2022-11-13T03:53:45.480Z,57.41
2022-11-13T03:57:07.299Z,57.13
2022-11-13T04:00:35.248Z,57.26
2022-11-13T04:03:58.903Z,57.15
2022-11-13T04:07:23.944Z,56.43
2022-11-13T04:10:51.295Z,56.01
2022-11-13T04:14:41.300Z,55.76
2022-11-13T04:18:15.481Z,55.12
2022-11-13T04:21:48.547Z,54.85
2022-11-13T04:25:21.551Z,54.49
2022-11-13T04:28:45.725Z,54.11
2022-11-13T04:32:15.089Z,54.27
2022-11-13T04:44:46.793Z,53.08
2022-11-13T04:48:14.630Z,53.26
2022-11-13T05:29:28.254Z,50.25
2022-11-13T05:32:55.113Z,50.86
2022-11-13T05:36:18.704Z,50.32
2022-11-13T05:48:41.382Z,49.92
2022-11-13T05:52:13.791Z,49.75
2022-11-13T05:55:55.550Z,49.62
2022-11-13T05:59:31.231Z,49.62
2022-11-13T06:07:02.099Z,47.98
2022-11-13T06:10:43.498Z,47.50
2022-11-13T06:14:44.586Z,46.47
2022-11-13T06:18:06.492Z,46.68
2022-11-13T06:21:40.925Z,47.12
2022-11-13T06:26:18.141Z,47.57
2022-11-13T06:29:23.974Z,47.27
2022-11-13T06:33:26.342Z,47.99
2022-11-13T06:37:15.291Z,48.00
2022-11-13T06:40:44.893Z,47.90
2022-11-13T06:44:06.694Z,47.81
2022-11-13T06:47:58.164Z,47.29
2022-11-13T06:51:42.869Z,46.96
2022-11-13T06:55:04.680Z,46.34
2022-11-13T06:58:26.886Z,46.09
2022-11-13T07:01:52.555Z,46.38
2022-11-13T07:05:14.301Z,45.81
2022-11-13T07:08:56.623Z,46.24
2022-11-13T07:12:21.591Z,46.57
2022-11-13T07:15:43.353Z,47.04
2022-11-13T07:19:06.082Z,46.69
2022-11-13T07:22:36.752Z,47.36
2022-11-13T07:26:10.426Z,46.91
2022-11-13T07:30:09.636Z,47.30
2022-11-13T07:34:20.039Z,47.72
2022-11-13T07:38:06.925Z,47.45
2022-11-13T07:42:14.957Z,47.51
2022-11-13T07:54:40.763Z,48.95
2022-11-13T07:58:22.013Z,49.78
2022-11-13T08:02:09.936Z,50.04
2022-11-13T08:10:09.749Z,51.02
2022-11-13T08:36:34.306Z,51.51
2022-11-13T08:39:58.569Z,51.55
2022-11-13T08:43:39.419Z,52.08
2022-11-13T08:49:07.179Z,52.02
2022-11-13T09:01:20.594Z,52.78
2022-11-13T09:05:07.512Z,52.60
2022-11-13T09:15:10.116Z,52.88
2022-11-13T09:19:09.433Z,52.97
2022-11-13T09:29:41.455Z,53.31
2022-11-13T09:33:48.994Z,54.37
2022-11-13T09:45:02.579Z,55.36
2022-11-13T09:58:02.866Z,57.10
2022-11-13T10:02:34.164Z,57.42
2022-11-13T10:06:24.366Z,57.82
2022-11-13T10:10:30.538Z,58.23
2022-11-13T10:14:00.778Z,58.86
2022-11-13T10:17:32.992Z,59.34
2022-11-13T10:29:49.689Z,59.39
2022-11-13T10:33:44.029Z,60.28
2022-11-13T10:37:34.256Z,60.06
2022-11-13T10:41:05.500Z,59.79
2022-11-13T10:44:29.601Z,59.98
2022-11-13T10:48:07.939Z,60.13
2022-11-13T10:52:11.307Z,60.29
2022-11-13T10:55:38.681Z,60.63
2022-11-13T10:59:17.653Z,60.76
2022-11-13T11:03:26.096Z,60.98
2022-11-13T11:07:18.425Z,61.42
2022-11-13T11:10:36.895Z,61.50
2022-11-13T11:14:19.396Z,61.92
2022-11-13T11:17:45.848Z,62.24
2022-11-13T11:21:43.257Z,62.39
2022-11-13T11:25:41.727Z,62.82
2022-11-13T11:29:31.005Z,63.26
2022-11-13T11:33:13.776Z,63.15
2022-11-13T11:36:51.466Z,62.91
2022-11-13T11:40:34.612Z,63.09
2022-11-13T11:44:16.017Z,63.20
2022-11-13T11:48:20.578Z,63.42
2022-11-13T11:52:06.653Z,63.51
2022-11-13T11:55:32.881Z,63.71
2022-11-13T11:59:27.072Z,63.57
2022-11-13T12:03:19.113Z,63.25
2022-11-13T12:07:06.519Z,63.01
2022-11-13T12:10:38.006Z,63.22
2022-11-13T12:14:06.658Z,63.83
2022-11-13T12:17:49.456Z,63.50
2022-11-13T12:21:45.494Z,63.23
2022-11-13T12:26:04.000Z,63.50
2022-11-13T12:29:28.708Z,63.43
2022-11-13T12:33:28.251Z,63.27
2022-11-13T12:36:54.832Z,63.42
2022-11-13T12:40:44.429Z,64.10
2022-11-13T12:44:31.428Z,64.42
2022-11-13T12:47:53.602Z,64.39
2022-11-13T12:51:18.177Z,64.19
2022-11-13T12:54:44.088Z,64.53
2022-11-13T12:58:25.503Z,64.23
2022-11-13T13:02:12.602Z,64.89
2022-11-13T13:05:55.728Z,64.84
2022-11-13T13:09:53.873Z,65.25
2022-11-13T13:13:45.611Z,65.25
2022-11-13T13:17:16.449Z,65.42
2022-11-13T13:20:41.027Z,65.54
2022-11-13T13:24:27.060Z,65.48
2022-11-13T13:28:56.814Z,65.61
2022-11-13T13:32:46.357Z,66.00
2022-11-13T13:36:17.086Z,65.81
2022-11-13T13:40:03.235Z,66.62
2022-11-13T13:43:34.368Z,66.18
2022-11-13T13:47:04.868Z,66.38
2022-11-13T13:51:29.341Z,66.45
2022-11-13T13:54:31.147Z,66.79
2022-11-13T13:58:08.121Z,66.86
2022-11-13T14:02:09.224Z,67.02
2022-11-13T14:05:36.874Z,67.00
2022-11-13T14:09:10.991Z,66.85
2022-11-13T14:12:32.710Z,66.66
2022-11-13T14:16:13.689Z,66.81
2022-11-13T14:19:42.812Z,66.62
2022-11-13T14:23:05.046Z,66.90
2022-11-13T14:26:28.805Z,66.86
2022-11-13T14:30:03.412Z,67.23
2022-11-13T14:33:45.447Z,67.02
2022-11-13T14:37:24.958Z,66.95
2022-11-13T14:40:52.549Z,66.84
2022-11-13T14:44:58.722Z,66.36
2022-11-13T14:48:24.931Z,66.23
2022-11-13T14:52:05.404Z,66.64
2022-11-13T14:55:33.823Z,66.26
2022-11-13T14:59:38.653Z,65.63
2022-11-13T15:07:12.627Z,66.73
2022-11-13T15:12:47.651Z,67.50
2022-11-13T15:15:37.959Z,66.87
2022-11-13T15:23:15.966Z,66.37
2022-11-13T15:27:03.750Z,66.35
2022-11-13T15:30:28.561Z,66.93
2022-11-13T15:33:52.864Z,67.07
2022-11-13T15:37:17.088Z,67.19
2022-11-13T15:40:48.235Z,67.61
2022-11-13T15:44:39.312Z,66.94
2022-11-13T15:52:53.053Z,67.73
2022-11-13T15:57:11.338Z,67.91
2022-11-13T16:00:32.555Z,66.94
2022-11-13T16:04:04.327Z,67.06
2022-11-13T16:42:21.267Z,68.54
2022-11-13T16:45:45.468Z,68.73
2022-11-13T16:49:21.017Z,67.89
2022-11-13T16:53:15.588Z,67.70
2022-11-13T16:57:15.102Z,67.79
2022-11-13T17:00:50.581Z,68.05
2022-11-13T17:08:31.115Z,67.34
2022-11-13T17:12:03.904Z,66.81
2022-11-13T17:19:09.209Z,67.04
2022-11-13T17:27:03.650Z,67.54
2022-11-13T17:47:13.095Z,68.78
2022-11-13T17:51:25.990Z,68.42
2022-11-13T17:55:15.070Z,67.48
2022-11-13T17:58:41.313Z,66.39
2022-11-13T18:02:33.885Z,65.62
2022-11-13T18:08:19.108Z,66.26
2022-11-13T18:10:50.587Z,66.84
2022-11-13T18:14:29.417Z,67.47
2022-11-13T18:18:46.531Z,67.75
2022-11-13T18:22:30.150Z,67.30
2022-11-13T18:25:53.399Z,67.36
2022-11-13T18:29:19.484Z,67.23
2022-11-13T18:33:53.887Z,66.00
2022-11-13T18:36:50.564Z,66.65
2022-11-13T18:41:18.064Z,67.10
2022-11-13T18:44:10.148Z,67.31
2022-11-13T18:47:48.144Z,66.97
2022-11-13T18:51:17.748Z,66.93
2022-11-13T18:54:55.844Z,66.78
2022-11-13T18:58:20.776Z,66.30
2022-11-13T19:01:42.970Z,65.94
2022-11-13T19:05:09.271Z,65.88
2022-11-13T19:08:40.652Z,65.94
2022-11-13T19:12:14.728Z,65.96
2022-11-13T19:15:38.383Z,66.73
2022-11-13T19:19:29.155Z,66.20
2022-11-13T19:23:09.433Z,66.24
2022-11-13T19:36:07.183Z,66.04
2022-11-13T19:40:59.524Z,66.41
2022-11-13T19:47:31.112Z,66.27
2022-11-13T19:50:57.636Z,66.62
2022-11-13T19:58:29.213Z,67.25
2022-11-13T20:01:55.668Z,67.78
2022-11-13T20:06:48.673Z,67.95
2022-11-13T20:09:20.167Z,67.54
2022-11-13T20:13:16.696Z,66.93
2022-11-13T20:16:46.670Z,67.25
2022-11-13T20:20:13.404Z,67.12
2022-11-13T20:23:38.209Z,67.17
2022-11-13T20:27:11.275Z,66.53
2022-11-13T20:30:37.666Z,66.79
2022-11-13T20:34:09.663Z,66.86
2022-11-13T20:37:52.443Z,66.61
2022-11-13T20:41:14.510Z,66.64
2022-11-13T20:44:40.286Z,66.26
2022-11-13T20:49:04.699Z,65.76
2022-11-13T20:53:14.887Z,65.57
2022-11-13T20:56:36.666Z,66.28
2022-11-13T21:00:02.488Z,66.16
2022-11-13T21:03:24.254Z,65.48
2022-11-13T21:06:48.631Z,65.66
2022-11-13T21:10:30.129Z,65.45
2022-11-13T21:13:54.300Z,65.92
2022-11-13T21:17:20.444Z,66.33
2022-11-13T21:20:45.147Z,66.71
2022-11-13T21:24:09.606Z,67.16
2022-11-13T21:27:36.813Z,67.16
2022-11-13T21:31:23.515Z,67.01
2022-11-13T21:34:47.252Z,66.88
2022-11-13T21:38:29.164Z,66.21
2022-11-13T21:41:54.053Z,65.95
2022-11-13T21:45:20.642Z,64.79
2022-11-13T21:48:57.733Z,65.07
2022-11-13T21:53:05.491Z,65.21
2022-11-13T22:00:58.985Z,65.16
2022-11-13T22:08:42.177Z,65.19
2022-11-13T22:12:09.314Z,65.17
2022-11-13T22:15:31.278Z,63.97
2022-11-13T22:19:00.015Z,62.92
2022-11-13T22:22:21.296Z,62.48
2022-11-13T22:29:57.572Z,62.02
2022-11-13T22:33:19.535Z,62.34
2022-11-13T22:36:46.642Z,63.69
2022-11-13T22:40:19.357Z,63.60
2022-11-13T22:48:04.746Z,64.00
2022-11-13T22:51:28.677Z,64.28
2022-11-13T22:54:50.139Z,64.42
2022-11-13T22:58:18.499Z,64.38
2022-11-13T23:01:44.668Z,65.18
2022-11-13T23:05:18.943Z,65.10
2022-11-13T23:08:41.242Z,65.36
2022-11-13T23:12:03.304Z,65.91
2022-11-13T23:15:25.486Z,65.54
2022-11-13T23:22:38.626Z,65.32
2022-11-13T23:26:02.958Z,63.79
2022-11-13T23:34:45.453Z,64.11
2022-11-13T23:38:07.790Z,63.35
2022-11-13T23:43:17.371Z,62.40
2022-11-13T23:46:01.635Z,63.37
2022-11-13T23:49:36.434Z,63.38
2022-11-13T23:53:19.491Z,63.72
